.
WxDataArchive / Data Records for 2016-01-25
2016-01-24 January 2016 2016-01-26

Data Records for Monday, 25 January 2016

Time	Temp	Chill	HIndex	Humid	Dewpt	 Wind 	HiWind	WindDir	Rain 	Barom
-----	----	-----	------	-----	-----	------	------	-------	-----	-----
00:00	29.0	29.0	29.0	77	22.7	0	0	---	0.00	30.001 
00:05	29.0	29.0	29.0	77	22.7	0	1	292	0.00	30.001 
00:10	29.0	29.0	29.0	77	22.7	0	0	---	0.00	30.001 
00:15	28.8	28.8	28.8	77	22.5	0	1	292	0.00	30.001 
00:20	28.8	28.8	28.8	77	22.5	0	0	---	0.00	30.001 
00:25	28.7	28.7	28.7	77	22.4	0	0	---	0.00	30.001 
00:30	28.5	28.5	28.5	77	22.2	0	0	---	0.00	30.004 
00:35	28.4	28.4	28.4	77	22.1	0	0	---	0.00	30.004 
00:40	28.2	28.2	28.2	77	21.9	0	0	---	0.00	30.004 
00:45	28.1	28.1	28.1	77	21.8	0	1	292	0.00	30.007 
00:50	27.8	27.8	27.8	77	21.5	0	0	---	0.00	30.007 
00:55	27.5	27.5	27.5	77	21.3	0	0	---	0.00	30.007 
01:00	27.2	27.2	27.2	78	21.3	0	0	---	0.00	30.013 
01:05	26.9	26.9	26.9	79	21.3	0	0	---	0.00	30.013 
01:10	26.6	26.6	26.6	79	21.0	0	0	---	0.00	30.013 
01:15	26.3	26.3	26.3	80	21.0	0	0	---	0.00	30.013 
01:20	26.1	26.1	26.1	81	21.1	0	0	---	0.00	30.013 
01:25	26.0	26.0	26.0	81	21.0	0	0	---	0.00	30.013 
01:30	25.8	25.8	25.8	81	20.8	0	0	---	0.00	30.010 
01:35	25.8	25.8	25.8	82	21.1	0	0	---	0.00	30.010 
01:40	25.8	25.8	25.8	82	21.1	0	0	---	0.00	30.010 
01:45	25.8	25.8	25.8	82	21.1	0	1	292	0.00	30.007 
01:50	26.0	26.0	26.0	82	21.3	0	0	---	0.00	30.007 
01:55	26.1	26.1	26.1	82	21.4	0	0	---	0.00	30.007 
02:00	26.1	26.1	26.1	82	21.4	0	0	---	0.00	30.009 
02:05	26.0	26.0	26.0	82	21.3	0	0	---	0.00	30.009 
02:10	26.0	26.0	26.0	82	21.3	0	0	---	0.00	30.009 
02:15	26.0	26.0	26.0	82	21.3	0	0	---	0.00	30.010 
02:20	25.8	25.8	25.8	82	21.1	0	0	---	0.00	30.010 
02:25	25.8	25.8	25.8	82	21.1	0	1	292	0.00	30.010 
02:30	25.8	25.8	25.8	82	21.1	0	0	---	0.00	30.010 
02:35	26.0	26.0	26.0	82	21.3	0	0	---	0.00	30.010 
02:40	26.0	26.0	26.0	82	21.3	0	0	---	0.00	30.010 
02:45	25.8	25.8	25.8	82	21.1	0	0	---	0.00	30.010 
02:50	25.8	25.8	25.8	82	21.1	0	0	---	0.00	30.010 
02:55	26.0	26.0	26.0	82	21.3	0	0	---	0.00	30.010 
03:00	26.0	26.0	26.0	82	21.3	0	0	---	0.00	30.010 
03:05	26.1	26.1	26.1	82	21.4	0	0	---	0.00	30.010 
03:10	26.1	26.1	26.1	82	21.4	0	1	292	0.00	30.010 
03:15	26.3	26.3	26.3	81	21.3	0	0	---	0.00	30.010 
03:20	26.3	26.3	26.3	81	21.3	0	1	292	0.00	30.010 
03:25	26.4	26.4	26.4	81	21.4	0	1	292	0.00	30.010 
03:30	26.3	26.3	26.3	81	21.3	0	1	292	0.00	30.008 
03:35	26.3	26.3	26.3	81	21.3	0	1	292	0.00	30.008 
03:40	26.3	26.3	26.3	81	21.3	0	1	292	0.00	30.008 
03:45	26.4	26.4	26.4	80	21.1	0	1	292	0.00	30.009 
03:50	26.4	26.4	26.4	80	21.1	0	1	292	0.00	30.009 
03:55	26.4	26.4	26.4	80	21.1	0	1	292	0.00	30.009 
04:00	26.4	26.4	26.4	80	21.1	0	1	292	0.00	30.005 
04:05	26.4	26.4	26.4	80	21.1	0	2	292	0.00	30.005 
04:10	26.6	26.6	26.6	79	21.0	0	1	292	0.00	30.005 
04:15	26.6	26.6	26.6	79	21.0	0	1	292	0.00	29.999 
04:20	26.7	26.7	26.7	79	21.1	0	1	292	0.00	29.999 
04:25	26.6	26.6	26.6	79	21.0	0	0	---	0.00	29.999 
04:30	26.6	26.6	26.6	79	21.0	0	1	292	0.00	29.999 
04:35	26.6	26.6	26.6	79	21.0	0	0	---	0.00	29.999 
04:40	26.4	26.4	26.4	79	20.8	0	1	292	0.00	29.999 
04:45	26.4	26.4	26.4	79	20.8	0	0	---	0.00	30.001 
04:50	26.4	26.4	26.4	78	20.5	0	1	292	0.00	30.001 
04:55	26.3	26.3	26.3	79	20.7	0	1	292	0.00	30.001 
05:00	26.3	26.3	26.3	78	20.4	0	0	---	0.00	30.000 
05:05	26.1	26.1	26.1	78	20.2	0	1	292	0.00	30.000 
05:10	26.0	26.0	26.0	78	20.1	0	0	---	0.00	30.000 
05:15	26.0	26.0	26.0	78	20.1	0	0	---	0.00	29.998 
05:20	25.8	25.8	25.8	78	19.9	0	0	---	0.00	29.998 
05:25	25.7	25.7	25.7	78	19.8	0	1	292	0.00	29.998 
05:30	25.6	25.6	25.6	78	19.7	0	0	---	0.00	29.996 
05:35	25.4	25.4	25.4	78	19.5	0	0	---	0.00	29.996 
05:40	25.3	25.3	25.3	78	19.4	0	0	---	0.00	29.996 
05:45	25.0	25.0	25.0	79	19.4	0	0	---	0.00	29.998 
05:50	24.7	24.7	24.7	79	19.1	0	0	---	0.00	29.998 
05:55	24.5	24.5	24.5	80	19.2	0	0	---	0.00	29.998 
06:00	24.5	24.5	24.5	80	19.2	0	0	---	0.00	29.999 
06:05	24.4	24.4	24.4	80	19.1	0	0	---	0.00	29.999 
06:10	24.2	24.2	24.2	80	18.9	0	1	292	0.00	29.999 
06:15	24.1	24.1	24.1	81	19.1	0	0	---	0.00	29.997 
06:20	24.1	24.1	24.1	81	19.1	0	0	---	0.00	29.997 
06:25	24.1	24.1	24.1	81	19.1	0	1	292	0.00	29.997 
06:30	24.1	24.1	24.1	81	19.1	0	1	292	0.00	29.996 
06:35	24.1	24.1	24.1	81	19.1	0	0	---	0.00	29.996 
06:40	24.1	24.1	24.1	81	19.1	0	1	292	0.00	29.996 
06:45	23.9	23.9	23.9	81	18.9	0	0	---	0.00	29.994 
06:50	23.9	23.9	23.9	81	18.9	0	0	---	0.00	29.994 
06:55	23.8	23.8	23.8	81	18.8	0	0	---	0.00	29.994 
07:00	23.8	23.8	23.8	81	18.8	0	1	292	0.00	29.994 
07:05	23.8	23.8	23.8	81	18.8	0	1	292	0.00	29.994 
07:10	23.9	23.9	23.9	81	18.9	0	1	292	0.00	29.994 
07:15	23.9	23.9	23.9	81	18.9	0	1	292	0.00	29.996 
07:20	24.1	24.1	24.1	81	19.1	0	2	292	0.00	29.996 
07:25	24.1	24.1	24.1	81	19.1	0	1	292	0.00	29.996 
07:30	24.1	24.1	24.1	81	19.1	0	1	292	0.00	29.992 
07:35	23.9	23.9	23.9	81	18.9	0	1	292	0.00	29.992 
07:40	23.8	23.8	23.8	81	18.8	0	0	---	0.00	29.992 
07:45	23.6	23.6	23.6	81	18.6	0	0	---	0.00	29.989 
07:50	23.6	23.6	23.6	81	18.6	0	1	292	0.00	29.989 
07:55	23.5	23.5	23.5	81	18.5	0	0	---	0.00	29.989 
08:00	23.3	23.3	23.3	81	18.3	0	1	292	0.00	29.992 
08:05	23.3	23.3	23.3	82	18.6	0	0	---	0.00	29.992 
08:10	23.3	23.3	23.3	82	18.6	0	1	292	0.00	29.992 
08:15	23.5	23.5	23.5	82	18.8	0	0	---	0.00	29.993 
08:20	23.5	23.5	23.5	82	18.8	0	1	292	0.00	29.993 
08:25	23.5	23.5	23.5	82	18.8	0	1	292	0.00	29.993 
08:30	23.6	23.6	23.6	82	18.9	0	1	292	0.00	29.986 
08:35	23.8	23.8	23.8	82	19.1	0	1	292	0.00	29.986 
08:40	23.9	23.9	23.9	82	19.2	0	0	---	0.00	29.986 
08:45	24.2	24.2	24.2	82	19.5	0	1	292	0.00	29.986 
08:50	24.5	24.5	24.5	82	19.8	0	1	292	0.00	29.986 
08:55	24.8	24.8	24.8	82	20.1	0	1	292	0.00	29.986 
09:00	25.3	25.3	25.3	81	20.3	0	1	292	0.00	29.984 
09:05	25.8	25.8	25.8	82	21.1	0	1	292	0.00	29.984 
09:10	26.4	26.4	26.4	81	21.4	0	2	292	0.00	29.984 
09:15	27.0	27.0	27.0	80	21.7	0	2	292	0.00	29.970 
09:20	27.5	27.5	27.5	80	22.2	0	4	135	0.00	29.970 
09:25	27.9	27.9	27.9	79	22.2	0	2	135	0.00	29.970 
09:30	28.4	28.4	28.4	78	22.4	0	2	135	0.00	29.968 
09:35	29.0	29.0	29.0	77	22.7	0	2	135	0.00	29.968 
09:40	29.3	29.3	29.3	76	22.7	0	2	135	0.00	29.968 
09:45	29.8	29.8	29.8	75	22.9	0	2	135	0.00	29.965 
09:50	30.7	30.7	30.7	73	23.1	1	3	112	0.00	29.965 
09:55	31.6	31.6	31.6	71	23.3	1	5	112	0.00	29.965 
10:00	32.2	32.2	32.2	69	23.2	1	5	90	0.00	29.964 
10:05	32.5	32.5	32.5	69	23.5	1	4	90	0.00	29.964 
10:10	32.7	32.7	32.7	68	23.3	2	7	90	0.00	29.964 
10:15	32.9	32.9	32.9	68	23.5	1	3	112	0.00	29.963 
10:20	33.2	33.2	33.2	67	23.4	1	4	112	0.00	29.963 
10:25	33.5	33.5	33.5	67	23.7	1	4	90	0.00	29.963 
10:30	34.0	34.0	34.0	66	23.9	2	6	112	0.00	29.961 
10:35	34.4	34.4	34.4	65	23.9	2	5	90	0.00	29.961 
10:40	34.9	34.9	34.9	65	24.3	2	10	68	0.00	29.961 
10:45	35.5	35.5	35.5	64	24.5	1	4	90	0.00	29.955 
10:50	35.8	35.8	35.8	63	24.5	1	4	90	0.00	29.955 
10:55	36.2	36.2	36.2	62	24.5	1	4	112	0.00	29.955 
11:00	36.2	36.2	36.2	62	24.5	2	6	90	0.00	29.949 
11:05	36.3	36.3	36.3	63	24.9	2	10	90	0.00	29.949 
11:10	36.5	36.5	36.5	62	24.7	2	9	68	0.00	29.949 
11:15	36.9	36.9	36.9	62	25.1	2	6	90	0.00	29.944 
11:20	37.2	37.2	37.2	61	25.0	2	6	90	0.00	29.944 
11:25	37.3	37.3	37.3	62	25.5	1	4	112	0.00	29.944 
11:30	37.6	37.6	37.6	62	25.8	1	5	68	0.00	29.940 
11:35	37.9	37.9	37.9	61	25.7	1	4	112	0.00	29.940 
11:40	38.2	38.2	38.2	61	26.0	1	5	135	0.00	29.940 
11:45	38.8	38.8	38.8	60	26.1	2	5	90	0.00	29.932 
11:50	39.2	39.2	39.2	59	26.1	2	5	112	0.00	29.932 
11:55	39.5	39.5	39.5	59	26.4	1	5	90	0.00	29.932 
12:00	39.8	39.8	39.8	58	26.2	1	3	90	0.00	29.927 
12:05	39.9	39.9	39.9	58	26.3	2	6	90	0.00	29.927 
12:10	40.1	40.1	40.1	58	26.5	2	9	68	0.00	29.927 
12:15	40.2	40.2	40.2	58	26.6	1	5	68	0.00	29.920 
12:20	40.5	40.5	40.5	58	26.9	1	5	112	0.00	29.920 
12:25	40.8	40.8	40.8	58	27.2	1	6	112	0.00	29.920 
12:30	41.2	41.2	41.2	58	27.6	0	3	112	0.00	29.910 
12:35	41.3	41.3	41.3	58	27.7	1	5	68	0.00	29.910 
12:40	41.3	41.3	41.3	57	27.2	1	5	68	0.00	29.910 
12:45	41.2	41.2	41.2	58	27.6	0	2	315	0.00	29.908 
12:50	41.2	41.2	41.2	58	27.6	1	4	270	0.01	29.908 
12:55	41.1	41.1	41.1	58	27.5	1	5	90	0.00	29.908 
13:00	40.8	40.8	40.8	59	27.6	1	3	68	0.00	29.903 
13:05	40.6	40.6	40.6	60	27.8	1	3	68	0.00	29.903 
13:10	40.6	40.6	40.6	60	27.8	0	4	68	0.00	29.903 
13:15	40.5	40.5	40.5	60	27.7	1	4	68	0.00	29.895 
13:20	40.5	40.5	40.5	61	28.1	0	2	22	0.00	29.895 
13:25	40.5	40.5	40.5	61	28.1	1	3	68	0.00	29.895 
13:30	40.5	40.5	40.5	61	28.1	0	3	68	0.00	29.882 
13:35	40.5	40.5	40.5	61	28.1	1	5	90	0.00	29.882 
13:40	40.5	40.5	40.5	62	28.5	1	3	90	0.00	29.882 
13:45	40.3	40.3	40.3	62	28.3	1	5	90	0.00	29.874 
13:50	40.3	40.3	40.3	62	28.3	2	5	112	0.00	29.874 
13:55	40.3	40.3	40.3	62	28.3	0	4	112	0.00	29.874 
14:00	40.3	40.3	40.3	62	28.3	1	3	112	0.00	29.864 
14:05	40.2	40.2	40.2	62	28.2	1	4	112	0.00	29.864 
14:10	40.2	40.2	40.2	62	28.2	1	4	68	0.00	29.864 
14:15	40.2	40.2	40.2	62	28.2	1	3	68	0.00	29.858 
14:20	40.2	40.2	40.2	62	28.2	1	2	68	0.00	29.858 
14:25	40.2	40.2	40.2	62	28.2	0	3	68	0.00	29.858 
14:30	40.2	40.2	40.2	62	28.2	1	4	68	0.00	29.851 
14:35	40.2	40.2	40.2	63	28.6	1	3	90	0.00	29.851 
14:40	40.2	40.2	40.2	63	28.6	1	3	90	0.00	29.851 
14:45	40.2	40.2	40.2	63	28.6	1	4	68	0.01	29.848 
14:50	40.2	40.2	40.2	64	29.0	0	3	68	0.00	29.848 
14:55	40.2	40.2	40.2	64	29.0	1	2	68	0.00	29.848 
15:00	40.2	40.2	40.2	64	29.0	1	5	68	0.00	29.846 
15:05	40.3	40.3	40.3	64	29.1	1	3	90	0.00	29.846 
15:10	40.3	40.3	40.3	64	29.1	1	5	112	0.00	29.846 
15:15	40.5	40.5	40.5	64	29.3	2	5	90	0.00	29.834 
15:20	40.5	40.5	40.5	64	29.3	1	3	112	0.00	29.834 
15:25	40.5	40.5	40.5	64	29.3	1	4	112	0.00	29.834 
15:30	40.5	40.5	40.5	64	29.3	2	7	90	0.00	29.827 
15:35	40.6	40.6	40.6	64	29.4	1	5	90	0.00	29.827 
15:40	40.6	40.6	40.6	64	29.4	1	5	135	0.00	29.827 
15:45	40.6	40.6	40.6	64	29.4	1	5	112	0.00	29.826 
15:50	40.6	40.6	40.6	64	29.4	1	4	90	0.00	29.826 
15:55	40.8	40.8	40.8	64	29.6	1	5	90	0.00	29.826 
16:00	40.9	40.9	40.9	63	29.3	2	7	112	0.00	29.818 
16:05	41.1	41.1	41.1	63	29.5	1	4	90	0.00	29.818 
16:10	41.2	41.2	41.2	63	29.6	1	4	90	0.00	29.818 
16:15	41.2	41.2	41.2	62	29.2	1	3	90	0.00	29.816 
16:20	41.3	41.3	41.3	62	29.3	1	4	90	0.00	29.816 
16:25	41.3	41.3	41.3	62	29.3	1	3	90	0.00	29.816 
16:30	41.2	41.2	41.2	62	29.2	1	3	112	0.00	29.816 
16:35	41.2	41.2	41.2	63	29.6	1	3	112	0.00	29.816 
16:40	41.2	41.2	41.2	63	29.6	1	4	112	0.00	29.816 
16:45	41.2	41.2	41.2	63	29.6	2	4	112	0.00	29.808 
16:50	41.2	41.2	41.2	63	29.6	1	3	112	0.00	29.808 
16:55	41.2	41.2	41.2	63	29.6	2	6	90	0.00	29.808 
17:00	41.2	41.2	41.2	63	29.6	1	4	112	0.00	29.805 
17:05	41.2	41.2	41.2	63	29.6	1	2	112	0.00	29.805 
17:10	41.2	41.2	41.2	64	30.0	1	3	112	0.00	29.805 
17:15	41.2	41.2	41.2	64	30.0	1	3	112	0.00	29.805 
17:20	41.2	41.2	41.2	64	30.0	1	4	112	0.00	29.805 
17:25	41.2	41.2	41.2	65	30.3	1	4	112	0.00	29.805 
17:30	41.2	41.2	41.2	65	30.3	1	4	90	0.00	29.805 
17:35	41.2	41.2	41.2	65	30.3	1	3	90	0.00	29.805 
17:40	41.2	41.2	41.2	65	30.3	1	4	112	0.00	29.805 
17:45	41.1	41.1	41.1	65	30.2	1	3	90	0.00	29.803 
17:50	41.1	41.1	41.1	66	30.6	2	5	90	0.00	29.803 
17:55	41.1	41.1	41.1	67	31.0	2	5	90	0.00	29.803 
18:00	41.1	41.1	41.1	67	31.0	2	7	90	0.00	29.801 
18:05	41.1	41.1	41.1	68	31.4	2	5	90	0.00	29.801 
18:10	41.1	41.1	41.1	68	31.4	2	4	90	0.00	29.801 
18:15	41.1	41.1	41.1	69	31.7	2	4	90	0.00	29.801 
18:20	40.9	40.9	40.9	70	31.9	2	5	90	0.00	29.801 
18:25	40.9	40.9	40.9	70	31.9	2	5	90	0.00	29.801 
18:30	40.9	40.9	40.9	71	32.2	2	7	112	0.00	29.793 
18:35	40.9	40.9	40.9	71	32.2	2	5	90	0.00	29.793 
18:40	41.1	41.1	41.1	72	32.8	2	6	90	0.00	29.793 
18:45	41.1	41.1	41.1	72	32.8	1	5	112	0.00	29.788 
18:50	41.1	41.1	41.1	73	33.1	2	5	112	0.00	29.788 
18:55	41.2	41.2	41.2	73	33.2	2	5	112	0.00	29.788 
19:00	41.3	41.3	41.3	74	33.6	1	5	112	0.00	29.791 
19:05	41.3	41.3	41.3	74	33.6	2	5	112	0.00	29.791 
19:10	41.5	41.5	41.5	75	34.2	1	5	90	0.00	29.791 
19:15	41.6	41.6	41.6	75	34.3	1	5	135	0.00	29.786 
19:20	41.8	41.8	41.8	76	34.8	2	9	90	0.00	29.786 
19:25	41.8	41.8	41.8	76	34.8	1	4	90	0.00	29.786 
19:30	41.9	41.9	41.9	77	35.2	1	3	90	0.00	29.785 
19:35	41.9	41.9	41.9	77	35.2	1	4	90	0.00	29.785 
19:40	42.1	42.1	42.1	79	36.1	1	4	90	0.00	29.785 
19:45	41.9	41.9	41.9	81	36.5	2	9	68	0.00	29.781 
19:50	41.8	41.8	41.8	82	36.7	1	5	68	0.00	29.781 
19:55	41.6	41.6	41.6	83	36.8	2	5	90	0.00	29.781 
20:00	41.5	41.5	41.5	84	37.0	2	4	90	0.00	29.776 
20:05	41.3	41.3	41.3	85	37.1	1	4	45	0.00	29.776 
20:10	41.2	41.2	41.2	85	37.0	0	2	45	0.00	29.776 
20:15	41.2	41.2	41.2	85	37.0	1	5	90	0.00	29.771 
20:20	41.1	41.1	41.1	85	36.9	1	3	90	0.00	29.771 
20:25	41.2	41.2	41.2	86	37.3	1	5	90	0.00	29.771 
20:30	41.3	41.3	41.3	85	37.1	1	4	112	0.00	29.767 
20:35	41.5	41.5	41.5	85	37.3	1	3	112	0.00	29.767 
20:40	41.6	41.6	41.6	85	37.4	1	3	112	0.00	29.767 
20:45	41.8	41.8	41.8	85	37.6	1	3	112	0.00	29.763 
20:50	41.8	41.8	41.8	85	37.6	1	3	112	0.00	29.763 
20:55	42.1	42.1	42.1	85	37.9	1	7	45	0.00	29.763 
21:00	42.3	42.3	42.3	85	38.1	1	4	45	0.00	29.760 
21:05	42.6	42.6	42.6	85	38.4	1	4	68	0.00	29.760 
21:10	42.9	42.9	42.9	85	38.7	1	6	248	0.00	29.760 
21:15	43.3	43.3	43.3	84	38.8	1	6	90	0.00	29.746 
21:20	43.6	43.6	43.6	84	39.1	1	7	248	0.00	29.746 
21:25	43.9	43.9	43.9	83	39.1	2	10	90	0.00	29.746 
21:30	44.2	44.2	44.2	82	39.1	1	4	338	0.00	29.739 
21:35	44.2	44.2	44.2	82	39.1	1	6	292	0.00	29.739 
21:40	44.3	44.3	44.3	81	38.8	1	5	270	0.00	29.739 
21:45	44.5	44.5	44.5	81	39.0	1	3	68	0.00	29.739 
21:50	44.5	44.5	44.5	81	39.0	1	5	68	0.00	29.739 
21:55	44.5	44.5	44.5	81	39.0	1	5	248	0.00	29.739 
22:00	44.5	44.5	44.5	80	38.7	1	4	248	0.00	29.737 
22:05	44.5	44.5	44.5	81	39.0	1	4	248	0.00	29.737 
22:10	44.6	44.6	44.6	81	39.1	0	2	248	0.00	29.737 
22:15	44.6	44.6	44.6	81	39.1	1	3	225	0.00	29.735 
22:20	44.8	44.8	44.8	81	39.3	1	5	248	0.00	29.735 
22:25	44.8	44.8	44.8	81	39.3	2	8	270	0.00	29.735 
22:30	44.9	44.9	44.9	81	39.4	2	9	248	0.00	29.730 
22:35	44.9	44.9	44.9	81	39.4	2	5	270	0.00	29.730 
22:40	45.1	45.1	45.1	81	39.6	1	5	270	0.00	29.730 
22:45	45.1	45.1	45.1	81	39.6	2	6	248	0.00	29.725 
22:50	44.9	44.9	44.9	82	39.7	2	5	248	0.00	29.725 
22:55	44.8	44.8	44.8	82	39.6	1	4	270	0.00	29.725 
23:00	44.8	44.8	44.8	82	39.6	2	5	68	0.00	29.721 
23:05	44.6	44.6	44.6	82	39.4	2	6	248	0.00	29.721 
23:10	44.6	44.6	44.6	83	39.8	1	5	248	0.00	29.721 
23:15	44.3	44.3	44.3	84	39.8	1	5	248	0.00	29.717 
23:20	44.2	44.2	44.2	84	39.7	1	4	248	0.00	29.717 
23:25	44.1	44.1	44.1	84	39.6	1	4	225	0.00	29.717 
23:30	43.9	43.9	43.9	84	39.4	1	4	248	0.00	29.708 
23:35	43.9	43.9	43.9	85	39.7	1	3	225	0.00	29.708 
23:40	44.1	44.1	44.1	85	39.9	1	5	248	0.00	29.708 
23:45	44.1	44.1	44.1	85	39.9	1	4	248	0.00	29.716 
23:50	44.2	44.2	44.2	85	40.0	1	7	248	0.00	29.716 
23:55	44.2	44.2	44.2	85	40.0	1	5	248	0.00	29.716 

CoCoRaHS
IN-AL-39
A2 Web Hosting
Creative Commons License
GoDaddy
search engine by freefind advanced

loaded 2018-11-20 15:29:13 • last modified 2010-11-18 10:43:29
Privacy PolicyDisclaimer
• wx.awcolley.com is powered by PmWiki v.2002016 •
• all content (unless otherwise noted) © 2018 A W Colley